createdAt,value
2023-03-25T00:01:16.189Z,15.30
2023-03-25T00:03:46.136Z,14.80
2023-03-25T00:06:13.375Z,14.60
2023-03-25T00:08:41.818Z,14.30
2023-03-25T00:11:09.475Z,14.00
2023-03-25T00:13:36.599Z,13.60
2023-03-25T00:16:03.865Z,12.70
2023-03-25T00:18:33.221Z,12.20
2023-03-25T00:21:01.672Z,12.90
2023-03-25T00:23:35.195Z,12.30
2023-03-25T00:26:03.166Z,11.50
2023-03-25T00:28:31.482Z,12.00
2023-03-25T00:31:02.199Z,11.20
2023-03-25T00:33:29.694Z,11.00
2023-03-25T00:35:58.783Z,10.50
2023-03-25T00:38:32.852Z,10.80
2023-03-25T00:41:24.984Z,10.30
2023-03-25T00:43:56.179Z,9.60
2023-03-25T00:46:23.879Z,9.80
2023-03-25T00:48:52.074Z,9.60
2023-03-25T00:51:23.164Z,10.00
2023-03-25T00:53:53.819Z,10.20
2023-03-25T00:56:22.046Z,10.80
2023-03-25T00:58:49.389Z,10.40
2023-03-25T01:01:28.676Z,10.40
2023-03-25T01:03:57.985Z,9.60
2023-03-25T01:06:45.941Z,10.20
2023-03-25T01:09:21.088Z,11.00
2023-03-25T01:11:48.612Z,10.90
2023-03-25T01:14:17.889Z,10.90
2023-03-25T01:16:48.133Z,11.60
2023-03-25T01:19:16.603Z,11.50
2023-03-25T01:21:44.719Z,11.50
2023-03-25T01:24:13.194Z,10.80
2023-03-25T01:26:46.322Z,11.40
2023-03-25T01:29:17.004Z,10.70
2023-03-25T01:31:44.025Z,11.50
2023-03-25T01:34:11.001Z,11.50
2023-03-25T01:36:39.518Z,10.70
2023-03-25T01:39:07.414Z,10.50
2023-03-25T01:41:48.574Z,9.80
2023-03-25T01:44:20.192Z,11.00
2023-03-25T01:46:48.795Z,11.10
2023-03-25T01:49:23.072Z,11.10
2023-03-25T01:54:17.688Z,10.60
2023-03-25T01:56:47.148Z,10.90
2023-03-25T01:59:16.760Z,10.80
2023-03-25T02:01:46.403Z,10.50
2023-03-25T02:04:14.379Z,11.20
2023-03-25T02:06:43.897Z,10.90
2023-03-25T02:09:14.644Z,11.60
2023-03-25T02:11:42.343Z,11.00
2023-03-25T02:14:14.318Z,12.50
2023-03-25T02:16:53.675Z,11.60
2023-03-25T02:19:46.543Z,11.50
2023-03-25T02:22:25.648Z,10.70
2023-03-25T02:25:18.640Z,12.20
2023-03-25T02:28:14.125Z,12.50
2023-03-25T02:31:07.391Z,10.20
2023-03-25T02:33:58.579Z,12.20
2023-03-25T02:36:49.104Z,11.80
2023-03-25T02:39:59.386Z,12.00
2023-03-25T02:42:47.898Z,12.10
2023-03-25T02:45:47.290Z,10.90
2023-03-25T02:48:20.105Z,11.90
2023-03-25T02:50:55.407Z,10.70
2023-03-25T02:53:41.004Z,12.00
2023-03-25T02:56:16.526Z,12.60
2023-03-25T02:58:44.131Z,11.60
2023-03-25T03:01:14.374Z,11.70
2023-03-25T03:03:42.871Z,11.30
2023-03-25T03:06:15.248Z,11.30
2023-03-25T03:08:48.450Z,11.90
2023-03-25T03:11:56.472Z,11.90
2023-03-25T03:14:23.321Z,11.30
2023-03-25T03:17:09.677Z,10.80
2023-03-25T03:20:01.669Z,11.40
2023-03-25T03:22:52.145Z,11.80
2023-03-25T03:25:26.580Z,11.50
2023-03-25T03:28:10.469Z,10.60
2023-03-25T03:30:45.904Z,10.70
2023-03-25T03:33:27.640Z,10.80
2023-03-25T03:35:57.072Z,10.90
2023-03-25T03:38:26.705Z,12.10
2023-03-25T03:40:56.601Z,12.80
2023-03-25T03:43:38.721Z,11.90
2023-03-25T03:46:08.117Z,13.00
2023-03-25T03:48:41.444Z,12.70
2023-03-25T03:51:24.534Z,11.90
2023-03-25T03:54:12.524Z,11.80
2023-03-25T03:56:46.001Z,11.20
2023-03-25T03:59:17.057Z,11.30
2023-03-25T04:01:59.648Z,11.40
2023-03-25T04:04:27.206Z,11.80
2023-03-25T04:07:04.012Z,10.80
2023-03-25T04:10:02.647Z,10.60
2023-03-25T04:12:31.940Z,11.00
2023-03-25T04:15:02.941Z,10.90
2023-03-25T04:17:32.407Z,11.20
2023-03-25T04:19:59.886Z,11.50
2023-03-25T04:22:28.473Z,11.10
2023-03-25T04:24:55.827Z,11.50
2023-03-25T04:27:23.295Z,10.90
2023-03-25T04:29:51.794Z,11.40
2023-03-25T04:32:18.873Z,11.70
2023-03-25T04:34:46.477Z,11.20
2023-03-25T04:37:13.585Z,11.10
2023-03-25T04:39:40.458Z,11.50
2023-03-25T04:42:13.215Z,11.20
2023-03-25T04:44:40.932Z,10.80
2023-03-25T04:47:09.308Z,10.40
2023-03-25T04:49:37.793Z,11.10
2023-03-25T04:52:04.813Z,10.80
2023-03-25T04:54:32.061Z,11.00
2023-03-25T04:56:58.963Z,11.00
2023-03-25T04:59:26.713Z,11.10
2023-03-25T05:01:54.512Z,11.30
2023-03-25T05:04:24.228Z,11.00
2023-03-25T05:06:57.622Z,11.20
2023-03-25T05:09:25.179Z,11.90
2023-03-25T05:11:52.563Z,11.10
2023-03-25T05:14:23.272Z,12.00
2023-03-25T05:16:50.435Z,12.40
2023-03-25T05:19:18.290Z,13.20
2023-03-25T05:21:46.013Z,12.50
2023-03-25T05:24:14.079Z,12.40
2023-03-25T05:26:41.554Z,13.80
2023-03-25T05:29:13.916Z,13.80
2023-03-25T05:34:17.992Z,12.80
2023-03-25T05:36:44.859Z,12.70
2023-03-25T05:39:11.701Z,14.30
2023-03-25T05:41:38.555Z,13.50
2023-03-25T05:44:07.936Z,13.20
2023-03-25T05:46:35.209Z,12.90
2023-03-25T05:49:02.510Z,13.20
2023-03-25T05:51:33.052Z,13.40
2023-03-25T05:54:01.030Z,13.00
2023-03-25T05:56:28.199Z,11.90
2023-03-25T05:58:56.968Z,11.90
2023-03-25T06:01:32.699Z,11.30
2023-03-25T06:04:09.541Z,11.00
2023-03-25T06:06:36.647Z,11.00
2023-03-25T06:09:03.866Z,12.20
2023-03-25T06:11:37.405Z,11.10
2023-03-25T06:14:04.637Z,11.80
2023-03-25T06:16:36.170Z,11.60
2023-03-25T06:19:03.148Z,12.90
2023-03-25T06:21:33.328Z,12.80
2023-03-25T06:24:05.488Z,12.10
2023-03-25T06:26:33.092Z,12.40
2023-03-25T06:29:02.817Z,12.80
2023-03-25T06:31:33.016Z,13.00
2023-03-25T06:34:01.187Z,13.70
2023-03-25T06:39:01.226Z,14.20
2023-03-25T06:41:35.280Z,16.20
2023-03-25T06:44:11.958Z,14.10
2023-03-25T06:47:00.821Z,13.30
2023-03-25T06:49:30.217Z,12.80
2023-03-25T06:51:57.942Z,12.60
2023-03-25T06:54:25.740Z,13.40
2023-03-25T06:57:13.038Z,12.30
2023-03-25T07:00:00.278Z,13.20
2023-03-25T07:02:39.902Z,13.90
2023-03-25T07:05:09.371Z,13.30
2023-03-25T07:07:59.905Z,13.20
2023-03-25T07:11:00.206Z,12.40
2023-03-25T07:13:31.671Z,12.60
2023-03-25T07:16:05.046Z,13.20
2023-03-25T07:18:42.924Z,13.40
2023-03-25T07:21:31.630Z,12.50
2023-03-25T07:24:03.110Z,12.30
2023-03-25T07:26:43.850Z,13.00
2023-03-25T07:29:15.155Z,13.30
2023-03-25T07:31:57.120Z,14.00
2023-03-25T07:34:34.974Z,14.80
2023-03-25T07:37:24.793Z,13.00
2023-03-25T07:39:54.523Z,14.50
2023-03-25T07:42:36.491Z,16.00
2023-03-25T07:45:24.755Z,15.00
2023-03-25T07:48:01.797Z,14.40
2023-03-25T07:50:50.950Z,12.60
2023-03-25T07:56:12.116Z,13.50
2023-03-25T07:59:02.094Z,13.70
2023-03-25T08:01:33.577Z,14.70
2023-03-25T08:04:04.641Z,13.40
2023-03-25T08:06:47.586Z,13.00
2023-03-25T08:09:21.746Z,13.60
2023-03-25T08:12:08.707Z,13.40
2023-03-25T08:14:39.800Z,13.50
2023-03-25T08:17:06.899Z,12.90
2023-03-25T08:19:36.570Z,12.80
2023-03-25T08:22:06.090Z,12.80
2023-03-25T08:24:33.078Z,14.80
2023-03-25T08:27:01.282Z,13.40
2023-03-25T08:29:42.145Z,12.40
2023-03-25T08:32:09.293Z,12.90
2023-03-25T08:34:40.217Z,12.60
2023-03-25T08:37:11.860Z,13.20
2023-03-25T08:39:41.535Z,12.90
2023-03-25T08:42:08.500Z,13.00
2023-03-25T08:44:35.902Z,13.00
2023-03-25T08:47:02.722Z,12.30
2023-03-25T08:49:31.665Z,13.00
2023-03-25T08:52:01.431Z,13.50
2023-03-25T08:54:29.784Z,12.80
2023-03-25T08:56:56.975Z,13.80
2023-03-25T08:59:27.839Z,10.80
2023-03-25T09:01:56.357Z,12.60
2023-03-25T09:04:25.415Z,13.30
2023-03-25T09:07:10.862Z,12.20
2023-03-25T09:09:41.416Z,12.40
2023-03-25T09:12:12.256Z,11.20
2023-03-25T09:14:40.472Z,11.70
2023-03-25T09:17:09.547Z,11.50
2023-03-25T09:19:39.160Z,11.40
2023-03-25T09:22:06.941Z,12.30
2023-03-25T09:24:35.379Z,12.50
2023-03-25T09:27:02.945Z,12.30
2023-03-25T09:29:30.722Z,12.30
2023-03-25T09:31:59.261Z,12.70
2023-03-25T09:34:29.512Z,11.30
2023-03-25T09:36:56.743Z,12.10
2023-03-25T09:39:23.597Z,11.30
2023-03-25T09:42:13.638Z,11.10
2023-03-25T09:45:12.010Z,11.60
2023-03-25T09:47:41.604Z,12.00
2023-03-25T09:50:12.452Z,11.60
2023-03-25T09:52:56.455Z,11.70
2023-03-25T09:55:26.016Z,11.40
2023-03-25T09:58:19.482Z,11.80
2023-03-25T10:00:47.740Z,11.10
2023-03-25T10:03:19.728Z,13.30
2023-03-25T10:06:02.488Z,12.20
2023-03-25T10:08:42.117Z,12.60
2023-03-25T10:11:48.841Z,13.90
2023-03-25T10:14:20.324Z,12.90
2023-03-25T10:16:59.734Z,11.50
2023-03-25T10:19:38.465Z,12.80
2023-03-25T10:22:12.110Z,12.60
2023-03-25T10:24:48.666Z,12.50
2023-03-25T10:27:23.743Z,14.30
2023-03-25T10:29:57.895Z,13.70
2023-03-25T10:32:34.575Z,12.20
2023-03-25T10:35:03.460Z,13.00
2023-03-25T10:37:35.245Z,12.30
2023-03-25T10:45:38.703Z,12.40
2023-03-25T10:48:17.006Z,12.90
2023-03-25T10:50:44.120Z,15.10
2023-03-25T10:53:24.607Z,15.00
2023-03-25T10:55:58.362Z,14.30
2023-03-25T10:58:25.789Z,15.30
2023-03-25T11:00:52.787Z,14.70
2023-03-25T11:03:40.498Z,14.00
2023-03-25T11:06:08.579Z,15.40
2023-03-25T11:08:35.485Z,14.30
2023-03-25T11:11:05.519Z,14.20
2023-03-25T11:13:32.594Z,13.40
2023-03-25T11:16:04.466Z,13.80
2023-03-25T11:18:40.227Z,13.60
2023-03-25T11:21:09.331Z,13.80
2023-03-25T11:23:37.851Z,14.40
2023-03-25T11:26:33.381Z,13.70
2023-03-25T11:29:02.073Z,14.00
2023-03-25T11:31:32.946Z,13.40
2023-03-25T11:34:22.499Z,11.90
2023-03-25T11:39:22.506Z,13.70
2023-03-25T11:41:50.284Z,15.00
2023-03-25T11:44:29.416Z,14.70
2023-03-25T11:47:03.628Z,16.20
2023-03-25T11:49:35.056Z,15.80
2023-03-25T11:52:08.027Z,14.40
2023-03-25T11:54:36.137Z,14.50
2023-03-25T11:57:05.306Z,14.60
2023-03-25T11:59:37.355Z,15.00
2023-03-25T12:02:28.895Z,12.70
2023-03-25T12:05:03.748Z,13.80
2023-03-25T12:07:41.500Z,14.00
2023-03-25T12:10:16.118Z,14.00
2023-03-25T12:13:01.982Z,15.60
2023-03-25T12:15:50.515Z,13.50
2023-03-25T12:18:26.894Z,15.70
2023-03-25T12:23:49.545Z,14.50
2023-03-25T12:26:26.019Z,13.60
2023-03-25T12:29:02.109Z,14.20
2023-03-25T12:31:39.018Z,14.30
2023-03-25T12:34:17.958Z,15.10
2023-03-25T12:36:57.136Z,13.90
2023-03-25T12:39:42.174Z,13.50
2023-03-25T12:42:33.429Z,14.30
2023-03-25T12:45:20.828Z,14.60
2023-03-25T12:48:21.979Z,12.60
2023-03-25T12:51:06.555Z,14.00
2023-03-25T12:54:38.710Z,13.00
2023-03-25T12:57:13.295Z,13.30
2023-03-25T13:00:07.622Z,14.40
2023-03-25T13:03:26.807Z,13.70
2023-03-25T13:06:18.732Z,14.40
2023-03-25T13:09:05.772Z,12.80
2023-03-25T13:12:01.684Z,13.20
2023-03-25T13:14:49.477Z,12.10
2023-03-25T13:17:46.247Z,12.20
2023-03-25T13:20:29.713Z,14.10
2023-03-25T13:23:12.098Z,13.60
2023-03-25T13:26:09.388Z,12.10
2023-03-25T13:29:04.760Z,11.40
2023-03-25T13:31:46.384Z,12.70
2023-03-25T13:34:24.471Z,11.60
2023-03-25T13:36:59.621Z,12.10
2023-03-25T13:40:13.783Z,12.50
2023-03-25T13:43:07.079Z,10.40
2023-03-25T13:45:50.310Z,11.00
2023-03-25T13:49:10.256Z,12.00
2023-03-25T13:52:05.369Z,11.80
2023-03-25T13:54:51.879Z,12.60
2023-03-25T13:57:47.577Z,12.30
2023-03-25T14:00:36.433Z,11.90
2023-03-25T14:03:36.013Z,12.00
2023-03-25T14:06:29.431Z,11.80
2023-03-25T14:09:55.781Z,14.80
2023-03-25T14:12:58.740Z,13.00
2023-03-25T14:15:44.966Z,12.50
2023-03-25T14:18:24.569Z,12.30
2023-03-25T14:21:02.984Z,12.50
2023-03-25T14:23:31.024Z,12.30
2023-03-25T14:25:58.821Z,12.40
2023-03-25T14:28:42.152Z,12.90
2023-03-25T14:31:32.928Z,12.60
2023-03-25T14:34:02.718Z,12.10
2023-03-25T14:36:52.967Z,12.10
2023-03-25T14:39:32.350Z,12.90
2023-03-25T14:42:34.809Z,13.60
2023-03-25T14:45:54.272Z,13.50
2023-03-25T14:48:55.928Z,13.30
2023-03-25T14:54:47.938Z,12.20
2023-03-25T14:57:43.490Z,14.50
2023-03-25T15:00:49.686Z,14.30
2023-03-25T15:03:52.077Z,17.10
2023-03-25T15:06:42.580Z,15.10
2023-03-25T15:09:47.213Z,14.40
2023-03-25T15:12:43.938Z,13.20
2023-03-25T15:15:46.919Z,14.50
2023-03-25T15:18:52.607Z,14.40
2023-03-25T15:21:35.948Z,14.50
2023-03-25T15:24:09.828Z,16.30
2023-03-25T15:26:39.750Z,16.50
2023-03-25T15:29:16.824Z,17.10
2023-03-25T15:32:01.982Z,16.40
2023-03-25T15:34:44.331Z,16.40
2023-03-25T15:37:43.157Z,17.00
2023-03-25T15:40:18.710Z,17.90
2023-03-25T15:43:11.286Z,19.00
2023-03-25T15:46:03.303Z,18.90
2023-03-25T15:48:53.585Z,19.90
2023-03-25T15:51:42.910Z,17.80
2023-03-25T15:54:14.039Z,17.00
2023-03-25T15:56:41.872Z,16.00
2023-03-25T15:59:18.232Z,14.40
2023-03-25T16:01:47.638Z,13.50
2023-03-25T16:04:31.012Z,13.40
2023-03-25T16:06:57.990Z,13.60
2023-03-25T16:09:28.693Z,13.10
2023-03-25T16:12:00.567Z,13.30
2023-03-25T16:14:32.041Z,13.90
2023-03-25T16:17:05.516Z,14.00
2023-03-25T16:19:39.574Z,14.00
2023-03-25T16:22:28.890Z,14.10
2023-03-25T16:24:56.758Z,14.30
2023-03-25T16:27:31.542Z,14.10
2023-03-25T16:30:00.117Z,14.20
2023-03-25T16:32:32.480Z,13.60
2023-03-25T16:35:07.713Z,13.50
2023-03-25T16:37:35.456Z,13.20
2023-03-25T16:40:05.332Z,13.20
2023-03-25T16:42:33.980Z,13.20
2023-03-25T16:45:01.545Z,14.00
2023-03-25T16:47:30.670Z,13.20
2023-03-25T16:49:57.834Z,13.40
2023-03-25T16:52:28.680Z,13.00
2023-03-25T16:54:56.166Z,15.30
2023-03-25T16:57:32.524Z,15.60
2023-03-25T17:00:05.706Z,19.00
2023-03-25T17:02:42.273Z,21.50
2023-03-25T17:05:23.216Z,30.10
2023-03-25T17:08:04.810Z,31.60
2023-03-25T17:10:49.170Z,24.40
2023-03-25T17:13:24.467Z,23.40
2023-03-25T17:15:54.166Z,25.20
2023-03-25T17:18:24.734Z,26.40
2023-03-25T17:20:57.761Z,26.70
2023-03-25T17:23:41.032Z,26.60
2023-03-25T17:26:12.606Z,26.60
2023-03-25T17:28:50.506Z,25.40
2023-03-25T17:31:18.646Z,28.20
2023-03-25T17:33:52.991Z,31.30
2023-03-25T17:36:20.092Z,30.80
2023-03-25T17:38:51.866Z,36.10
2023-03-25T17:41:18.998Z,35.00
2023-03-25T17:43:50.850Z,37.70
2023-03-25T17:46:27.025Z,34.60
2023-03-25T17:48:56.830Z,34.10
2023-03-25T17:51:28.496Z,27.10
2023-03-25T17:53:55.763Z,26.50
2023-03-25T17:56:26.911Z,27.50
2023-03-25T17:59:03.025Z,27.50
2023-03-25T18:01:30.736Z,25.80
2023-03-25T18:03:57.634Z,26.70
2023-03-25T18:06:24.703Z,26.30
2023-03-25T18:08:51.655Z,29.00
2023-03-25T18:11:18.678Z,29.20
2023-03-25T18:13:53.821Z,36.40
2023-03-25T18:16:21.251Z,43.30
2023-03-25T18:18:48.347Z,39.00
2023-03-25T18:21:20.574Z,43.90
2023-03-25T18:23:50.157Z,42.10
2023-03-25T18:26:18.024Z,42.50
2023-03-25T18:28:46.524Z,41.40
2023-03-25T18:31:18.058Z,41.90
2023-03-25T18:33:47.871Z,42.40
2023-03-25T18:36:14.889Z,41.50
2023-03-25T18:38:42.883Z,43.50
2023-03-25T18:41:14.359Z,42.40
2023-03-25T18:46:16.678Z,45.00
2023-03-25T18:48:46.528Z,44.60
2023-03-25T18:51:13.412Z,44.30
2023-03-25T18:53:43.288Z,47.60
2023-03-25T18:56:10.510Z,44.20
2023-03-25T18:58:37.751Z,39.00
2023-03-25T19:01:06.930Z,29.40
2023-03-25T19:03:40.974Z,20.80
2023-03-25T19:06:13.261Z,16.50
2023-03-25T19:08:45.741Z,16.00
2023-03-25T19:11:20.812Z,16.50
2023-03-25T19:13:57.341Z,17.80
2023-03-25T19:16:24.732Z,20.30
2023-03-25T19:18:51.608Z,21.80
2023-03-25T19:21:18.827Z,20.20
2023-03-25T19:23:46.698Z,16.40
2023-03-25T19:26:13.702Z,13.80
2023-03-25T19:28:48.020Z,12.00
2023-03-25T19:31:18.529Z,9.90
2023-03-25T19:33:45.583Z,7.80
2023-03-25T19:36:15.934Z,6.80
2023-03-25T19:38:43.001Z,5.90
2023-03-25T19:41:19.338Z,5.90
2023-03-25T19:43:48.469Z,5.90
2023-03-25T19:46:16.477Z,5.80
2023-03-25T19:48:43.898Z,6.10
2023-03-25T19:51:11.153Z,5.50
2023-03-25T19:53:42.158Z,5.70
2023-03-25T19:56:13.438Z,5.60
2023-03-25T19:58:40.736Z,5.80
2023-03-25T20:01:10.784Z,5.70
2023-03-25T20:03:40.586Z,5.80
2023-03-25T20:06:08.380Z,6.10
2023-03-25T20:08:37.310Z,5.80
2023-03-25T20:11:08.877Z,5.30
2023-03-25T20:13:42.345Z,5.60
2023-03-25T20:16:09.281Z,5.30
2023-03-25T20:18:36.551Z,5.70
2023-03-25T20:21:11.352Z,5.20
2023-03-25T20:23:38.507Z,5.30
2023-03-25T20:26:05.889Z,5.90
2023-03-25T20:28:32.859Z,5.00
2023-03-25T20:31:00.189Z,5.30
2023-03-25T20:33:27.483Z,5.20
2023-03-25T20:35:54.917Z,5.50
2023-03-25T20:38:22.132Z,5.00
2023-03-25T20:40:53.771Z,5.50
2023-03-25T20:43:20.618Z,6.30
2023-03-25T20:45:47.741Z,5.20
2023-03-25T20:48:15.070Z,5.30
2023-03-25T20:50:42.996Z,5.10
2023-03-25T20:53:09.850Z,5.30
2023-03-25T20:56:11.621Z,5.80
2023-03-25T20:58:38.708Z,5.50
2023-03-25T21:01:05.859Z,4.80
2023-03-25T21:03:34.450Z,5.70
2023-03-25T21:06:07.476Z,5.10
2023-03-25T21:08:41.350Z,5.80
2023-03-25T21:11:08.677Z,5.20
2023-03-25T21:13:37.260Z,5.70
2023-03-25T21:16:04.600Z,5.50
2023-03-25T21:18:31.522Z,5.40
2023-03-25T21:21:03.879Z,6.40
2023-03-25T21:23:31.571Z,5.20
2023-03-25T21:26:08.901Z,5.80
2023-03-25T21:28:40.281Z,5.70
2023-03-25T21:31:19.191Z,5.60
2023-03-25T21:33:49.413Z,5.60
2023-03-25T21:36:23.813Z,6.20
2023-03-25T21:38:58.345Z,5.80
2023-03-25T21:41:26.086Z,5.60
2023-03-25T21:43:52.961Z,5.50
2023-03-25T21:46:23.816Z,6.20
2023-03-25T21:48:51.023Z,6.30
2023-03-25T21:51:19.787Z,5.90
2023-03-25T21:53:46.719Z,5.90
2023-03-25T21:56:17.411Z,6.30
2023-03-25T21:58:45.127Z,5.80
2023-03-25T22:01:22.303Z,5.90
2023-03-25T22:03:53.647Z,5.80
2023-03-25T22:06:24.111Z,6.10
2023-03-25T22:08:52.282Z,6.00
2023-03-25T22:11:21.352Z,6.40
2023-03-25T22:13:48.975Z,6.00
2023-03-25T22:16:20.180Z,6.90
2023-03-25T22:18:47.439Z,6.60
2023-03-25T22:21:16.468Z,6.10
2023-03-25T22:23:49.527Z,6.80
2023-03-25T22:26:17.093Z,7.30
2023-03-25T22:28:50.661Z,6.60
2023-03-25T22:31:20.552Z,6.50
2023-03-25T22:33:48.599Z,7.00
2023-03-25T22:36:16.120Z,6.80
2023-03-25T22:38:45.452Z,7.10
2023-03-25T22:41:13.965Z,6.70
2023-03-25T22:43:41.187Z,7.50
2023-03-25T22:46:08.686Z,7.60
2023-03-25T22:48:40.101Z,7.80
2023-03-25T22:51:08.335Z,7.90
2023-03-25T22:53:35.415Z,7.10
2023-03-25T22:56:02.549Z,7.10
2023-03-25T22:58:30.452Z,7.50
2023-03-25T23:00:59.901Z,7.80
2023-03-25T23:03:29.205Z,8.50
2023-03-25T23:06:05.227Z,8.20
2023-03-25T23:08:37.437Z,7.50
2023-03-25T23:11:11.705Z,8.20
2023-03-25T23:13:40.282Z,8.70
2023-03-25T23:16:13.199Z,8.90
2023-03-25T23:18:41.428Z,9.00
2023-03-25T23:21:11.513Z,8.80
2023-03-25T23:23:38.573Z,8.10
2023-03-25T23:28:49.281Z,8.90
2023-03-25T23:31:27.332Z,8.70
2023-03-25T23:33:58.082Z,8.30
2023-03-25T23:36:25.484Z,9.40
2023-03-25T23:38:53.228Z,8.60
2023-03-25T23:41:23.606Z,9.30
2023-03-25T23:43:50.703Z,9.30
2023-03-25T23:46:20.696Z,9.50
2023-03-25T23:48:47.732Z,8.30
2023-03-25T23:51:19.662Z,9.30
2023-03-25T23:53:49.896Z,9.30
2023-03-25T23:56:17.935Z,9.50
2023-03-25T23:58:44.998Z,8.60
